Time;durP1;ratioP1;P1;durP2;ratioP2;P2;SDS_P1;SDS_P2;PMS_P1;PMS_P2;Temp;Humidity;BMP_temperature;BMP_pressure;BME280_temperature;BME280_humidity;BME280_pressure;Samples;Min_cycle;Max_cycle;Signal;HPM_P1;HPM_P2
2021/06/11 00:01:11;;;;;;;2.85;1.85;;;;;;;23.36;66.21;100508.83;1738336;81;21517;-59
2021/06/11 00:03:37;;;;;;;3.25;2.00;;;;;;;23.35;66.16;100506.39;1735875;81;20980;-59
2021/06/11 00:06:04;;;;;;;6.08;2.22;;;;;;;23.33;66.12;100507.32;1732203;81;21130;-60
2021/06/11 00:08:31;;;;;;;3.85;1.65;;;;;;;23.31;66.08;100506.27;1737543;81;21062;-59
2021/06/11 00:10:57;;;;;;;2.72;1.90;;;;;;;23.29;66.04;100505.81;1735562;81;21068;-59
2021/06/11 00:13:24;;;;;;;3.12;1.92;;;;;;;23.28;66.01;100507.53;1736924;81;20950;-59
2021/06/11 00:15:50;;;;;;;4.03;1.80;;;;;;;23.28;65.99;100504.76;1736685;81;21055;-59
2021/06/11 00:18:16;;;;;;;2.47;1.75;;;;;;;23.29;66.01;100503.61;1711979;81;21037;-59
2021/06/11 00:20:43;;;;;;;2.33;1.57;;;;;;;23.28;66.07;100500.02;1737630;81;21240;-60
2021/06/11 00:23:09;;;;;;;4.08;1.75;;;;;;;23.30;66.14;100499.69;1734275;81;21001;-59
2021/06/11 00:25:35;;;;;;;2.52;1.60;;;;;;;23.29;66.21;100491.94;1738297;81;21020;-59
2021/06/11 00:28:01;;;;;;;3.20;1.82;;;;;;;23.29;66.22;100496.67;1683981;83;21139;-59
2021/06/11 00:30:29;;;;;;;2.65;1.82;;;;;;;23.29;66.19;100494.71;1718006;82;21030;-59
2021/06/11 00:32:56;;;;;;;3.00;1.85;;;;;;;23.28;66.17;100490.88;1690397;83;21831;-59
2021/06/11 00:35:23;;;;;;;2.80;1.82;;;;;;;23.27;66.12;100495.62;1723035;81;21459;-59
2021/06/11 00:37:49;;;;;;;2.92;1.80;;;;;;;23.24;66.09;100489.38;1690043;83;21449;-59
2021/06/11 00:40:16;;;;;;;3.62;1.80;;;;;;;23.23;66.03;100487.17;1707307;82;21938;-61
2021/06/11 00:42:43;;;;;;;4.40;1.90;;;;;;;23.22;65.99;100487.50;1717174;81;21075;-59
2021/06/11 00:45:10;;;;;;;2.30;1.67;;;;;;;23.19;65.99;100489.58;1717711;81;21510;-59
2021/06/11 00:47:37;;;;;;;2.87;1.70;;;;;;;23.20;65.91;100493.41;1711068;82;20997;-60
2021/06/11 00:50:05;;;;;;;2.72;1.60;;;;;;;23.20;65.98;100497.58;1685616;83;21108;-59
2021/06/11 00:52:32;;;;;;;3.55;1.90;;;;;;;23.20;66.06;100490.64;1703854;83;21314;-60
2021/06/11 00:54:59;;;;;;;2.33;1.90;;;;;;;23.22;66.11;100491.66;1704329;83;21037;-65
2021/06/11 00:57:25;;;;;;;2.27;1.45;;;;;;;23.21;66.19;100492.84;1702661;83;21063;-59
2021/06/11 00:59:54;;;;;;;3.12;2.40;;;;;;;23.22;66.20;100498.03;1721173;81;21617;-60
2021/06/11 01:02:22;;;;;;;2.10;1.72;;;;;;;23.21;66.17;100495.02;1696935;83;21087;-59
2021/06/11 01:04:49;;;;;;;2.50;1.90;;;;;;;23.21;66.13;100493.63;1701853;82;21475;-59
2021/06/11 01:07:17;;;;;;;3.10;2.15;;;;;;;23.20;66.10;100493.98;1691976;84;21230;-60
2021/06/11 01:09:43;;;;;;;2.62;1.77;;;;;;;23.20;66.03;100482.89;1696845;83;21480;-59
2021/06/11 01:12:09;;;;;;;3.05;1.98;;;;;;;23.18;65.98;100482.41;1704454;83;20866;-60
2021/06/11 01:14:36;;;;;;;2.65;1.85;;;;;;;23.15;65.98;100486.69;1707088;83;21040;-59
2021/06/11 01:17:03;;;;;;;2.70;1.77;;;;;;;23.14;65.94;100488.41;1704131;83;20964;-59
2021/06/11 01:19:33;;;;;;;2.58;1.72;;;;;;;23.15;65.91;100488.65;1708267;83;21013;-59
2021/06/11 01:22:12;;;;;;;2.83;1.47;;;;;;;23.16;65.95;100490.28;1699929;83;22198;-60
2021/06/11 01:24:56;;;;;;;2.77;1.70;;;;;;;23.16;66.02;100491.09;1702166;83;21009;-59
2021/06/11 01:27:22;;;;;;;1.82;1.50;;;;;;;23.17;66.10;100490.48;1711204;82;21563;-60
2021/06/11 01:29:49;;;;;;;2.47;1.60;;;;;;;23.17;66.15;100487.71;1714287;81;21008;-60
2021/06/11 01:32:15;;;;;;;1.70;1.57;;;;;;;23.17;66.16;100486.33;1735915;80;21475;-59
2021/06/11 01:34:41;;;;;;;3.35;1.85;;;;;;;23.16;66.15;100484.16;1686501;82;21617;-59
2021/06/11 01:37:13;;;;;;;2.50;1.90;;;;;;;23.16;66.11;100482.77;1681520;82;21139;-59
2021/06/11 01:39:40;;;;;;;2.40;1.65;;;;;;;23.15;66.07;100476.98;1738434;81;21071;-59
2021/06/11 01:42:07;;;;;;;2.45;1.87;;;;;;;23.14;66.00;100477.30;1735359;81;21463;-59
2021/06/11 01:44:37;;;;;;;3.20;1.80;;;;;;;23.13;65.97;100482.62;1737743;81;21044;-59
2021/06/11 01:47:03;;;;;;;3.05;2.00;;;;;;;23.11;65.92;100473.84;1736865;81;21198;-59
2021/06/11 01:49:30;;;;;;;3.10;1.87;;;;;;;23.08;65.89;100482.28;1715678;81;20872;-61
2021/06/11 01:51:58;;;;;;;3.17;1.85;;;;;;;23.09;65.88;100481.67;1724790;81;21024;-59
2021/06/11 01:54:24;;;;;;;2.62;1.60;;;;;;;23.09;65.90;100478.33;1723215;81;21077;-60
2021/06/11 01:56:51;;;;;;;1.77;1.50;;;;;;;23.10;65.97;100470.82;1723875;81;21499;-59
2021/06/11 01:59:17;;;;;;;2.08;1.60;;;;;;;23.10;66.03;100474.41;1725647;81;21333;-60
2021/06/11 02:01:44;;;;;;;2.05;1.65;;;;;;;23.11;66.10;100469.10;1727819;81;21559;-60
2021/06/11 02:04:11;;;;;;;2.17;1.90;;;;;;;23.10;66.12;100460.53;1726751;81;21009;-60
2021/06/11 02:06:40;;;;;;;2.30;1.75;;;;;;;23.11;66.10;100462.73;1718602;81;21038;-60
2021/06/11 02:09:05;;;;;;;3.45;1.70;;;;;;;23.12;66.07;100460.20;1724424;81;21275;-59
2021/06/11 02:11:31;;;;;;;2.47;1.72;;;;;;;23.11;66.02;100458.58;1724990;81;21232;-59
2021/06/11 02:13:58;;;;;;;2.52;1.70;;;;;;;23.10;65.95;100462.49;1704126;83;21395;-59
2021/06/11 02:16:26;;;;;;;3.92;1.80;;;;;;;23.07;65.91;100450.70;1725144;81;21131;-59
2021/06/11 02:18:52;;;;;;;2.00;1.60;;;;;;;23.06;65.87;100456.02;1723453;81;21113;-60
2021/06/11 02:21:18;;;;;;;2.60;1.80;;;;;;;23.04;65.83;100458.33;1721176;81;20886;-59
2021/06/11 02:23:44;;;;;;;2.33;1.60;;;;;;;23.05;65.81;100462.70;1722796;81;21607;-59
2021/06/11 02:26:12;;;;;;;2.37;1.82;;;;;;;23.06;65.83;100467.11;1726678;81;21057;-59
2021/06/11 02:28:39;;;;;;;2.95;1.57;;;;;;;23.05;65.91;100461.31;1725779;81;21550;-59
2021/06/11 02:31:05;;;;;;;2.22;1.65;;;;;;;23.06;65.97;100462.95;1727316;81;21072;-59
2021/06/11 02:33:31;;;;;;;2.25;1.57;;;;;;;23.05;66.01;100466.30;1726485;81;21523;-59
2021/06/11 02:35:57;;;;;;;2.33;1.60;;;;;;;23.05;66.04;100465.48;1725172;81;21827;-60
2021/06/11 02:38:24;;;;;;;2.42;1.50;;;;;;;23.05;66.04;100471.03;1721967;81;21473;-59
2021/06/11 02:40:51;;;;;;;2.47;1.87;;;;;;;23.06;66.01;100468.50;1723357;81;21036;-59
2021/06/11 02:43:20;;;;;;;2.65;1.90;;;;;;;23.06;65.97;100471.27;1725039;81;21573;-59
2021/06/11 02:46:15;;;;;;;2.47;1.72;;;;;;;23.04;65.91;100478.54;1729377;81;21036;-59
2021/06/11 02:48:59;;;;;;;3.00;2.02;;;;;;;23.02;65.88;100477.27;1722660;82;21844;-59
2021/06/11 02:51:40;;;;;;;2.20;1.80;;;;;;;23.00;65.81;100480.98;1726691;81;21511;-59
2021/06/11 02:54:16;;;;;;;2.00;1.57;;;;;;;22.97;65.80;100478.87;1722894;81;21119;-60
2021/06/11 02:56:51;;;;;;;2.17;1.50;;;;;;;22.97;65.77;100488.00;1725068;81;21164;-59
2021/06/11 02:59:22;;;;;;;2.40;1.70;;;;;;;22.98;65.79;100486.05;1726267;81;21056;-59
2021/06/11 03:01:56;;;;;;;2.25;1.60;;;;;;;22.97;65.86;100488.58;1726492;81;21138;-59
2021/06/11 03:04:23;;;;;;;3.17;1.70;;;;;;;22.99;65.94;100494.61;1696602;81;21091;-60
2021/06/11 03:06:50;;;;;;;1.87;1.45;;;;;;;22.98;66.04;100491.02;1726930;81;21482;-59
2021/06/11 03:09:20;;;;;;;3.20;2.15;;;;;;;22.98;66.05;100491.02;1726464;81;21072;-59
2021/06/11 03:11:45;;;;;;;3.25;1.70;;;;;;;22.99;66.03;100494.03;1723836;81;21514;-59
2021/06/11 03:14:11;;;;;;;3.25;1.90;;;;;;;22.99;65.98;100484.91;1726161;81;23178;-59
2021/06/11 03:16:43;;;;;;;2.58;1.92;;;;;;;22.99;65.92;100489.06;1723568;81;21126;-59
2021/06/11 03:19:10;;;;;;;2.50;1.70;;;;;;;22.97;65.87;100493.55;1721364;81;20965;-59
2021/06/11 03:21:40;;;;;;;2.72;1.70;;;;;;;22.95;65.85;100497.27;1728142;81;21175;-59
2021/06/11 03:24:22;;;;;;;4.13;1.70;;;;;;;22.92;65.84;100499.30;1724957;81;21080;-59
2021/06/11 03:26:56;;;;;;;5.00;2.15;;;;;;;22.93;65.82;100495.39;1709007;81;23273;-59
2021/06/11 03:29:33;;;;;;;2.12;1.50;;;;;;;22.94;65.88;100496.20;1693332;81;21148;-60
2021/06/11 03:32:02;;;;;;;3.70;1.67;;;;;;;22.94;66.01;100492.86;1726514;81;21000;-60
2021/06/11 03:34:32;;;;;;;4.55;1.65;;;;;;;22.94;66.09;100495.63;1727658;81;21091;-60
2021/06/11 03:36:58;;;;;;;2.33;1.60;;;;;;;22.94;66.19;100497.59;1724046;81;21641;-60
2021/06/11 03:39:31;;;;;;;2.85;1.70;;;;;;;22.94;66.25;100501.75;1722225;81;23186;-59
2021/06/11 03:41:58;;;;;;;2.12;1.40;;;;;;;22.94;66.26;100505.91;1724841;81;21103;-59
2021/06/11 03:44:25;;;;;;;11.28;2.83;;;;;;;22.94;66.29;100512.28;1726640;81;21407;-59
2021/06/11 03:46:51;;;;;;;6.37;2.52;;;;;;;22.95;66.30;100514.48;1731138;81;21029;-58
2021/06/11 03:49:19;;;;;;;27.15;9.03;;;;;;;22.94;66.28;100519.22;1725046;81;21516;-59
2021/06/11 03:51:45;;;;;;;31.12;10.23;;;;;;;22.94;66.30;100512.28;1722074;81;21135;-59
2021/06/11 03:54:13;;;;;;;51.35;18.02;;;;;;;22.96;66.34;100513.30;1720615;81;21067;-58
2021/06/11 03:56:39;;;;;;;48.92;17.50;;;;;;;22.99;66.32;100514.03;1729985;81;21574;-58
2021/06/11 03:59:08;;;;;;;18.57;6.47;;;;;;;23.04;66.34;100511.05;1701430;81;21131;-59
2021/06/11 04:01:38;;;;;;;86.92;25.72;;;;;;;23.04;66.40;100518.77;1722735;81;21107;-60
2021/06/11 04:04:06;;;;;;;108.10;34.03;;;;;;;23.07;66.49;100523.66;1726687;81;21099;-58
2021/06/11 04:06:37;;;;;;;49.83;14.68;;;;;;;23.09;66.57;100519.14;1722548;81;21605;-60
2021/06/11 04:09:08;;;;;;;;;;;;;;;23.10;66.60;100524.36;1734780;80;21029;-60
2021/06/11 04:11:44;;;;;;;12.95;3.40;;;;;;;23.12;66.64;100518.48;1755730;80;20203;-60
2021/06/11 04:14:27;;;;;;;95.15;26.62;;;;;;;23.13;66.60;100518.12;1751869;80;21506;-60
2021/06/11 04:16:57;;;;;;;76.53;23.95;;;;;;;23.14;66.53;100513.38;1748542;80;21502;-64
2021/06/11 04:19:28;;;;;;;43.38;13.40;;;;;;;23.13;66.49;100511.18;1751256;80;21120;-61
2021/06/11 04:21:56;;;;;;;12.58;4.17;;;;;;;23.12;66.43;100514.31;1735561;81;21939;-59
2021/06/11 04:24:33;;;;;;;6.12;2.12;;;;;;;23.11;66.44;100515.46;1730401;81;21617;-58
2021/06/11 04:26:59;;;;;;;4.80;1.75;;;;;;;23.11;66.41;100518.23;1719047;81;21547;-58
2021/06/11 04:29:27;;;;;;;3.35;1.40;;;;;;;23.10;66.44;100521.59;1722237;81;21325;-58
2021/06/11 04:31:54;;;;;;;4.83;2.05;;;;;;;23.11;66.49;100512.69;1727574;81;21381;-58
2021/06/11 04:34:21;;;;;;;5.35;2.62;;;;;;;23.11;66.59;100517.66;1738508;81;21036;-58
2021/06/11 04:36:47;;;;;;;11.05;3.45;;;;;;;23.12;66.64;100522.64;1736779;81;21906;-58
2021/06/11 04:39:14;;;;;;;7.83;3.65;;;;;;;23.11;66.70;100519.63;1738205;81;21060;-58
2021/06/11 04:41:40;;;;;;;8.18;3.42;;;;;;;23.10;66.70;100516.61;1735973;80;21352;-58
2021/06/11 04:44:07;;;;;;;8.98;3.47;;;;;;;23.11;66.69;100522.40;1725542;81;21582;-58
2021/06/11 04:46:33;;;;;;;8.63;3.08;;;;;;;23.10;66.66;100522.97;1728666;81;21480;-58
2021/06/11 04:48:59;;;;;;;6.20;3.30;;;;;;;23.09;66.60;100526.08;1730951;81;21140;-58
2021/06/11 04:51:26;;;;;;;8.18;3.35;;;;;;;23.07;66.59;100525.63;1723478;81;21071;-58
2021/06/11 04:53:52;;;;;;;6.20;3.10;;;;;;;23.05;66.55;100520.41;1729697;81;21255;-58
2021/06/11 04:56:18;;;;;;;6.30;3.20;;;;;;;23.07;66.52;100519.50;1723502;81;21116;-58
2021/06/11 04:58:47;;;;;;;8.13;2.95;;;;;;;23.09;66.58;100525.50;1731927;81;21128;-58
2021/06/11 05:01:13;;;;;;;6.45;3.12;;;;;;;23.10;66.66;100524.93;1737454;81;21821;-58
2021/06/11 05:03:39;;;;;;;8.10;3.77;;;;;;;23.12;66.79;100529.58;1731157;81;21028;-58
2021/06/11 05:06:05;;;;;;;21.20;6.97;;;;;;;23.14;66.90;100528.64;1731719;81;21554;-57
2021/06/11 05:08:31;;;;;;;22.65;6.95;;;;;;;23.15;66.96;100536.64;1726762;81;20999;-59
2021/06/11 05:10:57;;;;;;;20.92;7.85;;;;;;;23.16;66.99;100540.23;1732989;81;21087;-58
2021/06/11 05:13:23;;;;;;;13.60;5.67;;;;;;;23.17;67.02;100537.67;1729731;81;21696;-60
2021/06/11 05:15:50;;;;;;;10.13;3.67;;;;;;;23.18;67.03;100539.30;1724426;81;21352;-58
2021/06/11 05:18:16;;;;;;;6.75;3.15;;;;;;;23.18;67.05;100542.08;1717604;81;21135;-59
2021/06/11 05:20:42;;;;;;;14.47;3.70;;;;;;;23.21;67.02;100537.25;1721181;81;21114;-58
2021/06/11 05:23:08;;;;;;;7.55;3.00;;;;;;;23.24;67.08;100540.72;1714357;81;21347;-59
2021/06/11 05:25:35;;;;;;;6.72;2.70;;;;;;;23.25;67.19;100552.06;1734056;81;21080;-58
2021/06/11 05:28:02;;;;;;;5.72;2.35;;;;;;;23.28;67.27;100543.05;1725061;81;21566;-58
2021/06/11 05:30:29;;;;;;;8.00;2.90;;;;;;;23.29;67.33;100550.23;1719020;81;21168;-58
2021/06/11 05:32:55;;;;;;;4.28;2.42;;;;;;;23.30;67.36;100563.53;1702512;83;21147;-58
2021/06/11 05:35:22;;;;;;;6.08;2.17;;;;;;;23.30;67.36;100563.53;1698618;83;20978;-58
2021/06/11 05:37:49;;;;;;;5.80;2.45;;;;;;;23.30;67.33;100571.86;1702927;83;21888;-58
2021/06/11 05:40:16;;;;;;;6.33;2.20;;;;;;;23.29;67.31;100572.44;1695593;83;21096;-58
2021/06/11 05:42:42;;;;;;;7.10;2.37;;;;;;;23.28;67.27;100569.41;1699056;83;21112;-58
2021/06/11 05:45:09;;;;;;;4.15;2.30;;;;;;;23.27;67.24;100576.11;1700211;83;21108;-58
2021/06/11 05:47:41;;;;;;;4.67;2.05;;;;;;;23.28;67.28;100575.54;1695962;83;21127;-59
2021/06/11 05:50:09;;;;;;;4.78;1.87;;;;;;;23.32;67.36;100578.69;1695657;83;21042;-58
2021/06/11 05:52:35;;;;;;;6.72;2.05;;;;;;;23.34;67.41;100576.97;1726516;81;21044;-58
2021/06/11 05:55:03;;;;;;;3.02;1.60;;;;;;;23.38;67.44;100582.06;1732239;82;21403;-60
2021/06/11 05:57:30;;;;;;;2.05;1.80;;;;;;;23.39;67.50;100587.26;1714143;82;20993;-60
2021/06/11 05:59:57;;;;;;;3.90;1.98;;;;;;;23.39;67.51;100584.48;1712860;82;21079;-61
2021/06/11 06:02:24;;;;;;;3.12;2.33;;;;;;;23.41;67.50;100585.54;1689557;83;21573;-60
2021/06/11 06:04:50;;;;;;;3.67;2.12;;;;;;;23.40;67.47;100581.95;1706597;83;21088;-59
2021/06/11 06:07:16;;;;;;;3.55;1.70;;;;;;;23.40;67.44;100579.17;1720861;81;21528;-60
2021/06/11 06:09:43;;;;;;;2.83;1.80;;;;;;;23.42;67.42;100585.78;1714649;82;21096;-59
2021/06/11 06:12:10;;;;;;;3.52;1.80;;;;;;;23.44;67.39;100589.86;1708340;81;21059;-58
2021/06/11 06:14:37;;;;;;;4.67;2.22;;;;;;;23.47;67.42;100591.94;1692949;83;21049;-59
2021/06/11 06:17:04;;;;;;;2.98;1.85;;;;;;;23.49;67.48;100591.61;1678662;83;21170;-57
2021/06/11 06:19:31;;;;;;;3.87;1.75;;;;;;;23.51;67.52;100594.27;1719449;81;23279;-58
2021/06/11 06:21:57;;;;;;;3.12;1.80;;;;;;;23.53;67.60;100589.20;1720719;82;21092;-57
2021/06/11 06:24:23;;;;;;;3.33;1.72;;;;;;;23.54;67.62;100592.22;1708737;82;20961;-58
2021/06/11 06:26:49;;;;;;;3.67;1.90;;;;;;;23.56;67.58;100591.86;1690781;83;21102;-59
2021/06/11 06:29:15;;;;;;;2.67;1.87;;;;;;;23.57;67.54;100593.48;1750834;80;21074;-58
2021/06/11 06:31:41;;;;;;;3.15;2.10;;;;;;;23.57;67.50;100597.65;1744201;81;21167;-58
2021/06/11 06:34:07;;;;;;;3.83;1.80;;;;;;;23.57;67.43;100596.27;1737862;81;20991;-60
2021/06/11 06:36:33;;;;;;;2.80;1.65;;;;;;;23.56;67.38;100594.62;1737492;81;21060;-59
2021/06/11 06:39:03;;;;;;;2.40;1.70;;;;;;;23.58;67.35;100600.67;1734651;82;21154;-58
2021/06/11 06:41:29;;;;;;;2.37;1.27;;;;;;;23.58;67.34;100600.09;1736869;81;21055;-58
2021/06/11 06:43:55;;;;;;;2.92;1.35;;;;;;;23.59;67.39;100604.47;1740998;81;21667;-58
2021/06/11 06:46:22;;;;;;;2.52;1.60;;;;;;;23.61;67.44;100601.36;1738909;81;20901;-60
2021/06/11 06:48:52;;;;;;;3.95;1.60;;;;;;;23.62;67.53;100599.64;1740588;81;21056;-58
2021/06/11 06:51:20;;;;;;;3.53;1.80;;;;;;;23.63;67.57;100596.30;1737486;81;21171;-58
2021/06/11 06:53:47;;;;;;;2.50;1.30;;;;;;;23.64;67.49;100599.28;1735738;81;21166;-59
2021/06/11 06:56:13;;;;;;;3.62;1.50;;;;;;;23.63;67.45;100595.72;1736714;81;21112;-59
2021/06/11 06:58:40;;;;;;;3.00;1.57;;;;;;;23.63;67.43;100599.06;1734155;81;20960;-59
2021/06/11 07:01:06;;;;;;;5.67;2.98;;;;;;;23.61;67.36;100595.23;1737028;81;21134;-59
2021/06/11 07:03:32;;;;;;;2.77;1.40;;;;;;;23.59;67.32;100600.30;1737747;81;20947;-58
2021/06/11 07:05:59;;;;;;;1.60;1.12;;;;;;;23.59;67.25;100595.36;1737824;81;21060;-59
2021/06/11 07:08:26;;;;;;;2.20;1.30;;;;;;;23.58;67.25;100595.93;1738447;81;21569;-58
2021/06/11 07:10:53;;;;;;;2.90;1.40;;;;;;;23.58;67.29;100597.31;1738072;81;21032;-58
2021/06/11 07:13:19;;;;;;;3.70;1.52;;;;;;;23.58;67.34;100597.31;1737333;81;21051;-58
2021/06/11 07:15:45;;;;;;;2.12;1.52;;;;;;;23.57;67.41;100599.85;1737260;81;21055;-59
2021/06/11 07:18:11;;;;;;;3.02;1.65;;;;;;;23.56;67.41;100592.67;1739126;81;20940;-58
2021/06/11 07:20:38;;;;;;;2.05;1.70;;;;;;;23.56;67.38;100601.58;1745603;81;21230;-58
2021/06/11 07:23:04;;;;;;;2.20;1.35;;;;;;;23.54;67.35;100592.22;1736411;81;21052;-59
2021/06/11 07:25:30;;;;;;;2.30;1.62;;;;;;;23.53;67.31;100591.16;1738840;81;21029;-58
2021/06/11 07:27:56;;;;;;;2.83;1.40;;;;;;;23.53;67.33;100588.38;1732081;81;21053;-58
2021/06/11 07:30:23;;;;;;;3.25;1.60;;;;;;;23.52;67.30;100590.34;1714982;82;21079;-58
2021/06/11 07:32:49;;;;;;;2.12;1.30;;;;;;;23.51;67.24;100585.94;1713005;82;21142;-57
2021/06/11 07:35:15;;;;;;;2.10;1.40;;;;;;;23.53;67.25;100591.98;1715351;82;20992;-58
2021/06/11 07:37:42;;;;;;;2.83;1.25;;;;;;;23.54;67.29;100590.83;1718392;82;21023;-59
2021/06/11 07:40:11;;;;;;;1.98;1.47;;;;;;;23.55;67.35;100598.59;1722948;82;21064;-58
2021/06/11 07:42:37;;;;;;;2.52;1.50;;;;;;;23.54;67.39;100598.34;1717755;82;21168;-59
2021/06/11 07:45:05;;;;;;;1.92;1.30;;;;;;;23.55;67.49;100595.20;1714163;82;21092;-58
2021/06/11 07:47:32;;;;;;;6.53;2.67;;;;;;;23.56;67.43;100600.19;1708574;83;21094;-58
2021/06/11 07:49:59;;;;;;;2.90;1.32;;;;;;;23.54;67.39;100600.55;1714669;83;21039;-58
2021/06/11 07:52:26;;;;;;;2.12;1.40;;;;;;;23.52;67.37;100600.06;1713645;82;21182;-58
2021/06/11 07:54:52;;;;;;;1.95;1.32;;;;;;;23.51;67.33;100595.66;1712427;83;21032;-58
2021/06/11 07:57:18;;;;;;;2.92;1.62;;;;;;;23.49;67.30;100599.94;1710880;82;22163;-59
2021/06/11 07:59:44;;;;;;;2.30;1.30;;;;;;;23.50;67.26;100596.83;1718310;82;21092;-59
2021/06/11 08:02:12;;;;;;;1.98;1.37;;;;;;;23.51;67.27;100598.44;1713097;82;21101;-58
2021/06/11 08:04:39;;;;;;;2.50;1.50;;;;;;;23.51;67.32;100602.59;1719269;82;21091;-59
2021/06/11 08:07:05;;;;;;;2.27;1.40;;;;;;;23.51;67.38;100599.00;1722962;82;20956;-59
2021/06/11 08:09:33;;;;;;;2.15;1.50;;;;;;;23.52;67.44;100600.06;1716817;82;20957;-59
2021/06/11 08:11:59;;;;;;;1.90;1.60;;;;;;;23.52;67.44;100599.25;1723035;82;21431;-58
2021/06/11 08:14:26;;;;;;;3.45;1.70;;;;;;;23.52;67.41;100601.45;1719753;82;21111;-59
2021/06/11 08:16:52;;;;;;;2.40;1.70;;;;;;;23.51;67.38;100600.39;1721704;82;21131;-59
2021/06/11 08:19:18;;;;;;;2.37;1.65;;;;;;;23.50;67.34;100599.61;1715597;82;21369;-59
2021/06/11 08:21:44;;;;;;;2.50;1.57;;;;;;;23.48;67.28;100597.73;1719665;82;21306;-58
2021/06/11 08:24:12;;;;;;;1.70;1.40;;;;;;;23.48;67.24;100599.70;1717970;83;21486;-58
2021/06/11 08:26:38;;;;;;;3.15;1.50;;;;;;;23.48;67.19;100592.19;1715394;83;20995;-58
2021/06/11 08:29:04;;;;;;;2.87;1.40;;;;;;;23.51;67.18;100597.61;1723108;81;20981;-59
2021/06/11 08:31:30;;;;;;;2.25;1.30;;;;;;;23.51;67.21;100594.84;1717269;81;21547;-58
2021/06/11 08:33:56;;;;;;;1.60;1.20;;;;;;;23.50;67.25;100594.05;1721681;81;21963;-59
2021/06/11 08:36:22;;;;;;;2.62;1.87;;;;;;;23.50;67.31;100594.05;1722717;82;20988;-59
2021/06/11 08:38:48;;;;;;;2.72;1.55;;;;;;;23.50;67.30;100582.13;1730694;81;20881;-58
2021/06/11 08:41:17;;;;;;;2.02;1.60;;;;;;;23.49;67.28;100586.88;1727894;81;21006;-58
2021/06/11 08:43:43;;;;;;;2.95;1.50;;;;;;;23.49;67.26;100586.05;1720390;81;21021;-59
2021/06/11 08:46:10;;;;;;;2.35;1.42;;;;;;;23.47;67.21;100579.45;1727148;82;21464;-58
2021/06/11 08:48:37;;;;;;;1.92;1.40;;;;;;;23.46;67.17;100581.20;1721014;81;21005;-58
2021/06/11 08:51:04;;;;;;;2.25;1.62;;;;;;;23.44;67.12;100582.91;1724559;82;21636;-59
2021/06/11 08:53:30;;;;;;;1.98;1.55;;;;;;;23.45;67.06;100581.77;1726752;82;21080;-58
2021/06/11 08:55:56;;;;;;;1.55;1.40;;;;;;;23.48;67.07;100581.65;1724532;82;21610;-59
2021/06/11 08:58:22;;;;;;;3.42;1.50;;;;;;;23.48;67.10;100585.24;1721754;82;21769;-58
2021/06/11 09:00:48;;;;;;;2.50;1.60;;;;;;;23.50;67.17;100576.01;1727996;82;21079;-58
2021/06/11 09:03:33;;;;;;;2.20;1.55;;;;;;;23.51;67.21;100580.38;1726127;81;22006;-59
2021/06/11 09:06:05;;;;;;;2.08;1.50;;;;;;;23.52;67.18;100580.63;1722643;81;21015;-59
2021/06/11 09:08:31;;;;;;;1.60;1.32;;;;;;;23.52;67.14;100570.91;1724931;81;21048;-59
2021/06/11 09:11:19;;;;;;;1.80;1.40;;;;;;;23.54;67.09;100569.19;1726022;81;21129;-59
2021/06/11 09:13:51;;;;;;;3.98;1.57;;;;;;;23.53;67.04;100568.38;1714018;82;21567;-59
2021/06/11 09:16:21;;;;;;;1.85;1.62;;;;;;;23.53;66.97;100569.76;1738371;81;21032;-59
2021/06/11 09:18:58;;;;;;;2.85;1.55;;;;;;;23.53;66.91;100568.94;1734321;81;21004;-58
2021/06/11 09:21:37;;;;;;;1.98;1.27;;;;;;;23.53;66.88;100567.55;1737211;81;21032;-58
2021/06/11 09:24:26;;;;;;;1.37;1.02;;;;;;;23.55;66.86;100571.59;1737336;81;21115;-58
2021/06/11 09:27:08;;;;;;;2.80;1.60;;;;;;;23.56;66.91;100573.23;1738673;81;21498;-58
2021/06/11 09:29:45;;;;;;;2.60;2.33;;;;;;;23.57;66.94;100568.48;1723249;82;20921;-58
2021/06/11 09:32:26;;;;;;;1.70;1.40;;;;;;;23.57;67.00;100565.14;1715982;82;21033;-58
2021/06/11 09:34:56;;;;;;;2.00;1.50;;;;;;;23.58;67.01;100567.34;1707637;83;21067;-58
2021/06/11 09:37:34;;;;;;;1.90;1.55;;;;;;;23.60;66.99;100566.41;1720899;81;21019;-58
2021/06/11 09:40:10;;;;;;;2.20;1.45;;;;;;;23.60;66.95;100565.83;1725005;81;21629;-58
2021/06/11 09:42:44;;;;;;;2.05;1.30;;;;;;;23.61;66.87;100563.30;1714851;81;21080;-58
2021/06/11 09:45:15;;;;;;;2.47;1.20;;;;;;;23.60;66.81;100553.33;1715152;81;21041;-58
2021/06/11 09:47:51;;;;;;;2.25;1.40;;;;;;;23.60;66.75;100551.95;1706197;83;21103;-58
2021/06/11 09:50:20;;;;;;;2.37;1.20;;;;;;;23.59;66.71;100551.70;1706708;83;21091;-58
2021/06/11 09:53:06;;;;;;;1.67;1.32;;;;;;;23.60;66.65;100547.78;1694370;83;21363;-59
2021/06/11 09:55:45;;;;;;;1.98;1.40;;;;;;;23.64;66.68;100547.32;1715566;81;21064;-59
2021/06/11 09:58:31;;;;;;;1.70;1.35;;;;;;;23.66;66.76;100542.83;1723226;81;21083;-59
2021/06/11 10:01:01;;;;;;;2.20;1.50;;;;;;;23.69;66.80;100536.57;1713825;81;21536;-59
2021/06/11 10:03:32;;;;;;;1.90;1.50;;;;;;;23.71;66.85;100544.00;1719616;81;21121;-60
2021/06/11 10:06:09;;;;;;;1.87;1.32;;;;;;;23.73;66.86;100536.69;1711438;82;21018;-59
2021/06/11 10:08:37;;;;;;;1.62;1.42;;;;;;;23.74;66.81;100541.09;1713399;82;21182;-59
2021/06/11 10:11:09;;;;;;;2.12;1.70;;;;;;;23.74;66.76;100532.76;1715476;82;21544;-59
2021/06/11 10:13:35;;;;;;;3.27;1.70;;;;;;;23.75;66.72;100526.88;1694548;84;21053;-59
2021/06/11 10:16:07;;;;;;;1.80;1.40;;;;;;;23.75;66.70;100522.70;1729241;81;21194;-59
2021/06/11 10:18:33;;;;;;;2.02;1.52;;;;;;;23.76;66.68;100522.94;1725579;81;21056;-59
2021/06/11 10:21:01;;;;;;;1.52;1.30;;;;;;;23.79;66.67;100519.47;1704560;83;21096;-59
2021/06/11 10:23:28;;;;;;;1.70;1.32;;;;;;;23.84;66.67;100518.42;1719558;81;21460;-59
2021/06/11 10:25:55;;;;;;;1.60;1.10;;;;;;;23.87;66.71;100516.34;1715838;81;21051;-59
2021/06/11 10:28:27;;;;;;;2.00;1.32;;;;;;;23.91;66.76;100511.13;1726456;81;22125;-59
2021/06/11 10:30:59;;;;;;;1.90;1.35;;;;;;;23.92;66.78;100503.03;1723629;81;21044;-59
2021/06/11 10:33:52;;;;;;;1.82;1.37;;;;;;;23.94;66.80;100509.04;1730594;81;21056;-58
2021/06/11 10:36:32;;;;;;;2.08;1.67;;;;;;;23.93;66.76;100503.24;1717692;81;21874;-59
2021/06/11 10:39:13;;;;;;;2.40;1.37;;;;;;;23.93;66.71;100497.69;1745901;80;21029;-59
2021/06/11 10:42:09;;;;;;;1.92;1.32;;;;;;;23.94;66.68;100497.11;1736059;81;21302;-59
2021/06/11 10:44:50;;;;;;;2.95;1.72;;;;;;;23.95;66.65;100489.83;1738600;81;21567;-59
2021/06/11 10:47:21;;;;;;;2.25;1.50;;;;;;;23.97;66.58;100486.14;1737762;81;21028;-59
2021/06/11 10:50:04;;;;;;;2.20;1.32;;;;;;;24.03;66.48;100490.86;1716152;82;21143;-59
2021/06/11 10:52:49;;;;;;;1.40;1.20;;;;;;;24.06;66.48;100489.58;1716828;81;21028;-58
2021/06/11 10:55:21;;;;;;;1.60;1.20;;;;;;;24.11;66.50;100489.92;1741911;81;21749;-60
2021/06/11 10:57:57;;;;;;;1.45;0.88;;;;;;;24.14;66.50;100488.64;1748468;80;21026;-58
2021/06/11 11:00:33;;;;;;;1.75;1.25;;;;;;;24.17;66.49;100485.80;1746843;80;21039;-59
2021/06/11 11:03:01;;;;;;;2.00;1.32;;;;;;;24.20;66.47;100478.14;1755119;80;21501;-58
2021/06/11 11:05:33;;;;;;;1.72;1.37;;;;;;;24.23;66.38;100487.16;1762044;80;21566;-59
2021/06/11 11:08:01;;;;;;;1.50;1.27;;;;;;;24.26;66.29;100467.59;1730297;81;21219;-59
2021/06/11 11:10:43;;;;;;;1.50;1.40;;;;;;;24.24;66.18;100463.77;1729378;81;21327;-59
2021/06/11 11:13:14;;;;;;;1.82;1.45;;;;;;;24.23;66.07;100463.53;1698969;82;21060;-59
2021/06/11 11:15:48;;;;;;;1.77;1.10;;;;;;;24.21;66.04;100463.66;1724349;82;21873;-61
2021/06/11 11:18:23;;;;;;;3.30;1.30;;;;;;;24.21;65.98;100460.88;1714168;81;21030;-59
2021/06/11 11:20:47;;;;;;;1.65;1.30;;;;;;;24.20;65.94;100457.28;1753089;80;21023;-61
2021/06/11 11:23:16;;;;;;;3.05;1.50;;;;;;;24.22;65.94;100454.98;1713893;81;21093;-59
2021/06/11 11:25:42;;;;;;;1.72;1.10;;;;;;;24.25;65.99;100452.07;1735745;81;21424;-59
2021/06/11 11:28:09;;;;;;;1.40;1.02;;;;;;;24.27;66.07;100454.75;1710800;81;21471;-59
2021/06/11 11:30:36;;;;;;;2.15;1.27;;;;;;;24.31;66.09;100459.83;1723195;82;20998;-59
2021/06/11 11:33:04;;;;;;;1.77;1.20;;;;;;;24.34;66.07;100454.95;1740190;81;21464;-59